createdAt,value
2018-06-28T00:01:46.895Z,96042.00
2018-06-28T00:07:17.004Z,96033.00
2018-06-28T00:12:47.318Z,96027.00
2018-06-28T00:18:17.139Z,96038.00
2018-06-28T00:23:47.219Z,96033.00
2018-06-28T00:29:17.261Z,96038.00
2018-06-28T00:34:47.290Z,96032.00
2018-06-28T00:40:17.075Z,96021.00
2018-06-28T00:45:47.168Z,96019.00
2018-06-28T00:51:16.575Z,96012.00
2018-06-28T00:56:46.583Z,96005.00
2018-06-28T01:02:16.447Z,96000.00
2018-06-28T01:07:46.737Z,95998.00
2018-06-28T01:13:17.384Z,95991.00
2018-06-28T01:18:47.734Z,95989.00
2018-06-28T01:24:17.538Z,95984.00
2018-06-28T01:29:47.572Z,95988.00
2018-06-28T01:35:18.299Z,95981.00
2018-06-28T01:40:48.445Z,95977.00
2018-06-28T01:46:18.714Z,95976.00
2018-06-28T01:51:48.404Z,95977.00
2018-06-28T01:57:18.415Z,95986.00
2018-06-28T02:02:47.929Z,95976.00
2018-06-28T02:08:17.597Z,95980.00
2018-06-28T02:13:47.366Z,95982.00
2018-06-28T02:19:17.273Z,95981.00
2018-06-28T02:24:46.971Z,95972.00
2018-06-28T02:30:16.616Z,95977.00
2018-06-28T02:35:46.160Z,95974.00
2018-06-28T02:41:15.793Z,95974.00
2018-06-28T02:46:46.117Z,95970.00
2018-06-28T02:52:15.578Z,95978.00
2018-06-28T02:57:45.757Z,95973.00
2018-06-28T03:03:15.775Z,95970.00
2018-06-28T03:08:46.198Z,95975.00
2018-06-28T03:14:15.621Z,95967.00
2018-06-28T03:19:45.739Z,95960.00
2018-06-28T03:25:15.814Z,95964.00
2018-06-28T03:30:45.658Z,95972.00
2018-06-28T03:36:15.470Z,95970.00
2018-06-28T03:41:45.312Z,95961.00
2018-06-28T03:47:15.197Z,95954.00
2018-06-28T03:52:45.181Z,95953.00
2018-06-28T03:58:15.111Z,95948.00
2018-06-28T04:03:44.814Z,95958.00
2018-06-28T04:09:15.244Z,95967.00
2018-06-28T04:14:46.067Z,95956.00
2018-06-28T04:20:16.573Z,95965.00
2018-06-28T04:25:47.124Z,95963.00
2018-06-28T04:31:16.932Z,95963.00
2018-06-28T04:36:47.800Z,95966.00
2018-06-28T04:42:18.316Z,95970.00
2018-06-28T04:47:48.021Z,95964.00
2018-06-28T04:53:17.644Z,95955.00
2018-06-28T04:58:47.565Z,95947.00
2018-06-28T05:04:17.265Z,95949.00
2018-06-28T05:09:47.496Z,95953.00
2018-06-28T05:15:17.561Z,95955.00
2018-06-28T05:20:47.670Z,95948.00
2018-06-28T05:26:17.492Z,95942.00
2018-06-28T05:31:47.576Z,95941.00
2018-06-28T05:37:17.283Z,95941.00
2018-06-28T05:42:46.980Z,95938.00
2018-06-28T05:48:16.714Z,95937.00
2018-06-28T05:53:46.993Z,95942.00
2018-06-28T05:59:17.472Z,95952.00
2018-06-28T06:04:47.874Z,95942.00
2018-06-28T06:10:17.614Z,95935.00
2018-06-28T06:15:47.573Z,95939.00
2018-06-28T06:21:17.500Z,95923.00
2018-06-28T06:26:47.750Z,95924.00
2018-06-28T06:32:17.894Z,95914.00
2018-06-28T06:37:47.580Z,95917.00
2018-06-28T06:43:17.589Z,95914.00
2018-06-28T06:48:48.224Z,95915.00
2018-06-28T06:54:17.715Z,95910.00
2018-06-28T06:59:47.381Z,95914.00
2018-06-28T07:05:17.181Z,95923.00
2018-06-28T07:10:47.109Z,95914.00
2018-06-28T07:16:17.195Z,95913.00
2018-06-28T07:21:47.376Z,95914.00
2018-06-28T07:27:17.848Z,95910.00
2018-06-28T07:32:47.577Z,95909.00
2018-06-28T07:38:17.976Z,95913.00
2018-06-28T07:43:47.952Z,95921.00
2018-06-28T07:49:17.805Z,95916.00
2018-06-28T07:54:47.805Z,95926.00
2018-06-28T08:00:18.695Z,95924.00
2018-06-28T08:05:48.365Z,95911.00
2018-06-28T08:11:17.831Z,95926.00
2018-06-28T08:16:48.177Z,95924.00
2018-06-28T08:22:18.222Z,95925.00
2018-06-28T08:27:48.317Z,95929.00
2018-06-28T08:33:19.162Z,95948.00
2018-06-28T08:38:48.920Z,95933.00
2018-06-28T08:44:19.034Z,95927.00
2018-06-28T08:49:48.608Z,95927.00
2018-06-28T08:55:19.101Z,95921.00
2018-06-28T09:00:48.952Z,95926.00
2018-06-28T09:06:19.002Z,95923.00
2018-06-28T09:11:48.559Z,95916.00
2018-06-28T09:17:18.524Z,95917.00
2018-06-28T09:22:48.577Z,95913.00
2018-06-28T09:28:18.591Z,95907.00
2018-06-28T09:33:48.649Z,95909.00
2018-06-28T09:39:18.605Z,95898.00
2018-06-28T09:44:48.813Z,95893.00
2018-06-28T09:50:18.551Z,95891.00
2018-06-28T09:55:48.140Z,95883.00
2018-06-28T10:01:18.460Z,95879.00
2018-06-28T10:06:48.371Z,95878.00
2018-06-28T10:12:18.295Z,95879.00
2018-06-28T10:17:48.204Z,95881.00
2018-06-28T10:23:17.789Z,95882.00
2018-06-28T10:28:47.927Z,95884.00
2018-06-28T10:34:17.949Z,95888.00
2018-06-28T10:39:47.601Z,95877.00
2018-06-28T10:45:17.441Z,95880.00
2018-06-28T10:50:47.097Z,95875.00
2018-06-28T10:56:17.135Z,95859.00
2018-06-28T11:01:47.334Z,95854.00
2018-06-28T11:07:17.096Z,95856.00
2018-06-28T11:12:46.647Z,95853.00
2018-06-28T11:18:17.011Z,95852.00
2018-06-28T11:23:47.663Z,95841.00
2018-06-28T11:29:17.207Z,95844.00
2018-06-28T11:34:46.625Z,95842.00
2018-06-28T11:40:16.341Z,95832.00
2018-06-28T11:45:46.339Z,95828.00
2018-06-28T11:51:16.376Z,95822.00
2018-06-28T11:56:46.876Z,95824.00
2018-06-28T12:02:17.365Z,95807.00
2018-06-28T12:07:46.907Z,95801.00
2018-06-28T12:13:16.788Z,95801.00
2018-06-28T12:18:47.407Z,95789.00
2018-06-28T12:24:18.075Z,95783.00
2018-06-28T12:29:47.772Z,95780.00
2018-06-28T12:35:18.064Z,95776.00
2018-06-28T12:40:48.344Z,95769.00
2018-06-28T12:46:18.092Z,95761.00
2018-06-28T12:52:04.447Z,95760.00
2018-06-28T12:57:33.639Z,95763.00
2018-06-28T13:03:02.856Z,95753.00
2018-06-28T13:08:32.035Z,95760.00
2018-06-28T13:14:01.232Z,95760.00
2018-06-28T13:19:30.394Z,95751.00
2018-06-28T13:24:59.643Z,95751.00
2018-06-28T13:30:28.877Z,95760.00
2018-06-28T13:35:58.085Z,95746.00
2018-06-28T13:41:27.647Z,95744.00
2018-06-28T13:46:56.688Z,95730.00
2018-06-28T13:52:25.627Z,95720.00
2018-06-28T13:57:55.218Z,95723.00
2018-06-28T14:03:26.192Z,95726.00
2018-06-28T14:08:55.694Z,95717.00
2018-06-28T14:14:25.095Z,95721.00
2018-06-28T14:19:54.486Z,95720.00
2018-06-28T14:25:24.465Z,95714.00
2018-06-28T14:30:53.888Z,95690.00
2018-06-28T14:36:23.581Z,95690.00
2018-06-28T14:41:53.516Z,95671.00
2018-06-28T14:47:23.052Z,95678.00
2018-06-28T14:52:52.819Z,95672.00
2018-06-28T14:58:22.565Z,95663.00
2018-06-28T15:03:53.320Z,95661.00
2018-06-28T15:09:22.895Z,95659.00
2018-06-28T15:14:52.724Z,95658.00
2018-06-28T15:20:22.956Z,95659.00
2018-06-28T15:25:53.014Z,95662.00
2018-06-28T15:31:22.727Z,95658.00
2018-06-28T15:36:52.525Z,95655.00
2018-06-28T15:42:22.210Z,95656.00
2018-06-28T15:47:55.075Z,95641.00
2018-06-28T15:53:24.569Z,95648.00
2018-06-28T15:58:54.123Z,95644.00
2018-06-28T16:04:24.085Z,95637.00
2018-06-28T16:09:53.832Z,95631.00
2018-06-28T16:15:23.633Z,95623.00
2018-06-28T16:20:53.470Z,95633.00
2018-06-28T16:26:22.994Z,95620.00
2018-06-28T16:31:53.618Z,95625.00
2018-06-28T16:37:24.845Z,95622.00
2018-06-28T16:42:54.930Z,95625.00
2018-06-28T16:48:24.280Z,95619.00
2018-06-28T16:53:54.096Z,95626.00
2018-06-28T16:59:24.009Z,95630.00
2018-06-28T17:04:53.604Z,95621.00
2018-06-28T17:10:23.013Z,95621.00
2018-06-28T17:15:52.790Z,95610.00
2018-06-28T17:21:22.630Z,95624.00
2018-06-28T17:26:52.409Z,95617.00
2018-06-28T17:32:22.832Z,95619.00
2018-06-28T17:37:52.955Z,95621.00
2018-06-28T17:43:22.860Z,95630.00
2018-06-28T17:48:53.256Z,95628.00
2018-06-28T17:54:23.140Z,95625.00
2018-06-28T17:59:53.249Z,95619.00
2018-06-28T18:05:23.350Z,95627.00
2018-06-28T18:10:53.670Z,95632.00
2018-06-28T18:16:23.984Z,95622.00
2018-06-28T18:21:53.727Z,95633.00
2018-06-28T18:27:23.294Z,95639.00
2018-06-28T18:32:53.552Z,95639.00
2018-06-28T18:38:23.810Z,95631.00
2018-06-28T18:43:53.570Z,95625.00
2018-06-28T18:49:23.919Z,95635.00
2018-06-28T18:54:53.817Z,95632.00
2018-06-28T19:00:23.039Z,95632.00
2018-06-28T19:05:52.339Z,95636.00
2018-06-28T19:11:22.329Z,95629.00
2018-06-28T19:16:56.179Z,95635.00
2018-06-28T19:22:30.601Z,95641.00
2018-06-28T19:27:59.839Z,95652.00
2018-06-28T19:33:29.130Z,95650.00
2018-06-28T19:39:03.517Z,95649.00
2018-06-28T19:44:32.691Z,95646.00
2018-06-28T19:50:07.292Z,95650.00
2018-06-28T19:55:36.509Z,95642.00
2018-06-28T20:01:10.867Z,95645.00
2018-06-28T20:06:40.913Z,95650.00
2018-06-28T20:12:15.455Z,95657.00
2018-06-28T20:18:01.939Z,95662.00
2018-06-28T20:23:31.199Z,95661.00
2018-06-28T20:29:05.739Z,95669.00
2018-06-28T20:34:34.991Z,95669.00
2018-06-28T20:40:04.232Z,95667.00
2018-06-28T20:45:33.459Z,95669.00
2018-06-28T20:51:02.807Z,95680.00
2018-06-28T20:56:31.889Z,95674.00
2018-06-28T21:02:01.079Z,95665.00
2018-06-28T21:07:30.319Z,95672.00
2018-06-28T21:12:59.671Z,95685.00
2018-06-28T21:18:28.871Z,95679.00
2018-06-28T21:23:58.118Z,95675.00
2018-06-28T21:29:27.359Z,95683.00
2018-06-28T21:34:56.601Z,95685.00
2018-06-28T21:40:25.839Z,95688.00
2018-06-28T21:45:55.126Z,95687.00
2018-06-28T21:51:24.327Z,95687.00
2018-06-28T21:56:53.564Z,95695.00
2018-06-28T22:02:22.777Z,95711.00
2018-06-28T22:07:52.022Z,95689.00
2018-06-28T22:13:21.208Z,95688.00
2018-06-28T22:18:50.421Z,95686.00
2018-06-28T22:24:19.715Z,95676.00
2018-06-28T22:29:48.974Z,95674.00
2018-06-28T22:35:18.217Z,95668.00
2018-06-28T22:40:47.513Z,95668.00
2018-06-28T22:46:16.782Z,95661.00
2018-06-28T22:51:46.079Z,95678.00
2018-06-28T22:57:15.373Z,95674.00
2018-06-28T23:02:44.682Z,95671.00
2018-06-28T23:08:14.001Z,95670.00
2018-06-28T23:13:43.417Z,95668.00
2018-06-28T23:19:12.644Z,95660.00
2018-06-28T23:24:41.851Z,95663.00
2018-06-28T23:30:11.084Z,95655.00
2018-06-28T23:35:40.353Z,95648.00
2018-06-28T23:41:09.605Z,95649.00
2018-06-28T23:46:38.852Z,95641.00
2018-06-28T23:52:08.056Z,95644.00
2018-06-28T23:57:37.379Z,95650.00
